Weather Models
Both GFS & NAM
00z 06z 12z 18z
24hr Precip
00z 06z 12z 18z
36hr Simulated radar
00z 06z 12z 18z
SKEWT Soundings
00z 12z
Current Conditions (Updated 11:35am on 7/19/18)
Temperature
 87°
4.11
87°  
69°  
0
10
20
30
40
50
60
70
80
90
100
Dew Point
52°
55°  
48°  
-20
-10
0
10
20
30
40
50
60
70
80
Heat Index
84°
85°  
70°  
30
40
50
60
70
80
90
100
110
120
130
Heat Index
Humidity
31%
50% 
31% 
0
10
20
30
40
50
60
70
80
90
100
Barometer
30.10
   Falling
30.13  
30.01  
28.00
28.30
28.60
28.90
29.20
29.50
29.80
30.10
30.40
30.70
31.00
Temperature
Dew Point
Humidity
Pressure
Wind
10mph
  S
Daily Rain
.00
.05
.10
.15
.20
.25
.30
.35
.40
.45
.50
Rain Today
 0.00" 
Month Rain
0.00
0.20
0.40
0.60
0.80
1.00
1.20
1.40
1.60
1.80
2.00
Month Rain
 1.40" 
Year Rain
0.00
5.00
10.00
15.00
20.00
25.00
30.00
35.00
40.00
45.00
50.00
Year Rain
 28.32" 
Sun & Moon Data
Sunrise 5:49am
Sunset 8:27pm
Moonrise 1:11pm
Moonset 12:19am
Moon % 46%
Other Rain Data
Past Hour 0.00 Past 24 Hours 0.00
Past 3 Hours 0.00 Past 7 Days 1.18
Past 6 Hours 0.00
Cloud Height
8549


Current Front Map
Current Satellite map
7 Day Forecast
NWS Forecast for Philadelphia PA
National Weather Service Forecast for: Philadelphia PA
Issued by: National Weather Service Philadelphia, PA
Updated: 9:36 am EDT Jul 19, 2018

Philadelphia
 
Today

Today: Sunny, with a high near 87. Northeast wind around 7 mph.
Sunny

Tonight

Tonight: Mostly clear, with a low around 66. Southeast wind 5 to 8 mph becoming calm  after midnight.
Mostly Clear

Friday

Friday: Sunny, with a high near 86. Southeast wind 3 to 7 mph.
Sunny

Friday
Night
Friday Night: Partly cloudy, with a low around 68. East wind 3 to 8 mph.
Partly Cloudy

Saturday

Saturday: A chance of showers, with thunderstorms also possible after noon.  Mostly cloudy, with a high near 79. East wind 8 to 11 mph.  Chance of precipitation is 50%. New rainfall amounts between a quarter and half of an inch possible.
Chance
Showers

Saturday
Night
Saturday Night: Showers likely and possibly a thunderstorm before 2am, then a chance of showers.  Mostly cloudy, with a low around 68. Chance of precipitation is 60%. New rainfall amounts between a quarter and half of an inch possible.
Showers
Likely

Sunday

Sunday: A chance of showers, with thunderstorms also possible after 2pm.  Mostly cloudy, with a high near 86. Chance of precipitation is 50%.
Chance
Showers then
Chance
T-storms
Sunday
Night
Sunday Night: A chance of showers and thunderstorms.  Mostly cloudy, with a low around 73. Chance of precipitation is 50%.
Chance
T-storms

Monday

Monday: Showers likely.  Mostly cloudy, with a high near 86. Chance of precipitation is 60%.
Showers
Likely

Hi 87 °F Lo 66 °F Hi 86 °F Lo 68 °F Hi 79 °F Lo 68 °F Hi 86 °F Lo 73 °F Hi 86 °F

Hazardous Weather Outlook
 

Today
 
Sunny, with a high near 87. Northeast wind around 7 mph.
Tonight
 
Mostly clear, with a low around 66. Southeast wind 5 to 8 mph becoming calm after midnight.
Friday
 
Sunny, with a high near 86. Southeast wind 3 to 7 mph.
Friday Night
 
Partly cloudy, with a low around 68. East wind 3 to 8 mph.
Saturday
 
A chance of showers, with thunderstorms also possible after noon. Mostly cloudy, with a high near 79. East wind 8 to 11 mph. Chance of precipitation is 50%. New rainfall amounts between a quarter and half of an inch possible.
Saturday Night
 
Showers likely and possibly a thunderstorm before 2am, then a chance of showers. Mostly cloudy, with a low around 68. Chance of precipitation is 60%. New rainfall amounts between a quarter and half of an inch possible.
Sunday
 
A chance of showers, with thunderstorms also possible after 2pm. Mostly cloudy, with a high near 86. Chance of precipitation is 50%.
Sunday Night
 
A chance of showers and thunderstorms. Mostly cloudy, with a low around 73. Chance of precipitation is 50%.
Monday
 
Showers likely. Mostly cloudy, with a high near 86. Chance of precipitation is 60%.
Monday Night
 
A chance of showers. Mostly cloudy, with a low around 74. Chance of precipitation is 50%.
Tuesday
 
A chance of showers and thunderstorms. Mostly cloudy, with a high near 87. Chance of precipitation is 50%.
Tuesday Night
 
A chance of showers. Mostly cloudy, with a low around 73. Chance of precipitation is 40%.
Wednesday
 
A chance of showers and thunderstorms. Mostly cloudy, with a high near 86. Chance of precipitation is 50%.

 

Forecast from NOAA-NWS for Philadelphia PA.

Area Weather Current Conditions
Nearby METAR Reports

KPHL - Philadelphia, Pennsylvania
Updated: Thu, 19-Jul-2018 10:54am EDT
Few Clouds
Few Clouds
 Wind from varies
Wind: varies 3 mph , 6 km/h
Temperature: 79°F , 26°C
Dew Point: 52°F , 11°C
Humidity: 39%
Barometer: 30.11 inHg , 1019.6 hPa
Clouds: Few Clouds
Visibility: 10 miles , 16 km
Cloud details: Few Clouds 6000 ft
Few Clouds 30000 ft
2018/07/19 14:54 KPHL 191454Z VRB03KT 10SM FEW060 FEW300 26/11 A3011 RMK AO2 SLP196 T02610111 51010 $
KMPO - Mt. Pocono, Pennsylvania
Updated: Thu, 19-Jul-2018 10:53am EDT
Clear
Clear
 Wind from E
Wind: E 6 mph , 9 km/h
Temperature: 68°F , 20°C
Dew Point: 48°F , 9°C
Humidity: 49%
Barometer: 30.17 inHg , 1021.7 hPa
Clouds: Clear
Visibility: 10 miles , 16 km
2018/07/19 14:53 KMPO 191453Z AUTO 08005KT 10SM CLR 20/09 A3017 RMK AO2 SLP212 T02000094 51012
 
KACY - Atlantic City, New Jersey
Updated: Thu, 19-Jul-2018 10:54am EDT
Clear
Clear
 Wind from varies
Wind: varies 5 mph , 7 km/h
Temperature: 81°F , 27°C
Heat Index: 82°F , 28°C
Dew Point: 61°F , 16°C
Humidity: 51%
Barometer: 30.10 inHg , 1019.3 hPa
Clouds: Clear
Visibility: 10 miles , 16 km
2018/07/19 14:54 KACY 191454Z VRB04KT 10SM CLR 27/16 A3010 RMK AO2 SLP191 T02670161 51010
KMIV - Millville, New Jersey
Updated: Thu, 19-Jul-2018 10:54am EDT
Clear
Clear
 Wind from calm
Wind: Calm
Temperature: 79°F , 26°C
Dew Point: 54°F , 12°C
Humidity: 42%
Barometer: 30.10 inHg , 1019.3 hPa
Clouds: Clear
Visibility: 10 miles , 16 km
2018/07/19 14:54 KMIV 191454Z AUTO 00000KT 10SM CLR 26/12 A3010 RMK AO2 SLP191 T02560117 51009
 
KWWD - Wildwood, New Jersey
Updated: Thu, 19-Jul-2018 10:55am EDT
Clear
Clear
 Wind from NNW
Wind: NNW 6 mph , 9 km/h
Temperature: 81°F , 27°C
Dew Point: 52°F , 11°C
Humidity: 37%
Barometer: 30.10 inHg , 1019.3 hPa
Clouds: Clear
Visibility: 10 miles , 16 km
2018/07/19 14:55 KWWD 191455Z AUTO 33005KT 10SM CLR 27/11 A3010 RMK AO2 SLP195 T02720111 51012
KDOV - Dover Afb, Delaware
Updated: Thu, 19-Jul-2018 10:56am EDT
Few Clouds
Few Clouds
 Wind from NNW
Wind: NNW 7 mph , 11 km/h
Temperature: 81°F , 27°C
Dew Point: 50°F , 10°C
Humidity: 34%
Barometer: 30.10 inHg , 1019.3 hPa
Clouds: Few Clouds
Visibility: 10 miles , 16 km
Cloud details: Few Clouds 12000 ft
2018/07/19 14:56 KDOV 191456Z 34006KT 10SM FEW120 27/10 A3010 RMK AO2A SLP196 T02650102 52012 $
Severe Weather Map
Recent Forum Post
[Philadelphia] 2017 -2018 Winter snow forecast by JC December 06, 2017, 02:00:35 AM
[Philadelphia] Request for Philly Snow Data by JC February 14, 2017, 08:42:21 PM
[Philadelphia] 2016 -2017 Winter snow forecast by JC December 01, 2016, 04:56:31 AM
[Philadelphia] Winter forecast 2016-2017 by xyonist November 30, 2016, 01:14:08 PM
[Philadelphia] 102.7 last Saturday by JC August 20, 2016, 03:26:22 AM
[Philadelphia] 2015 -2016 Winter snow forecast by JC April 19, 2016, 09:42:40 AM
[Philadelphia] Latest Models on Weekend Storm (Photos) by JC January 23, 2016, 12:01:03 PM
[Philadelphia] Possible large snow storm for end of week ? by JC January 21, 2016, 09:17:47 AM